createdAt,value
2023-03-22T00:00:47.811Z,99490.31
2023-03-22T00:03:15.289Z,99488.41
2023-03-22T00:05:44.121Z,99483.97
2023-03-22T00:08:13.314Z,99478.94
2023-03-22T00:13:43.869Z,99478.47
2023-03-22T00:16:11.753Z,99478.63
2023-03-22T00:18:39.228Z,99481.41
2023-03-22T00:21:12.090Z,99483.59
2023-03-22T00:26:36.117Z,99468.69
2023-03-22T00:29:04.768Z,99473.06
2023-03-22T00:34:32.131Z,99462.69
2023-03-22T00:37:02.122Z,99466.19
2023-03-22T00:39:29.975Z,99467.97
2023-03-22T00:41:57.464Z,99471.78
2023-03-22T00:44:25.265Z,99471.78
2023-03-22T00:49:55.596Z,99462.19
2023-03-22T00:52:25.207Z,99464.47
2023-03-22T00:54:52.705Z,99463.75
2023-03-22T00:57:20.476Z,99454.56
2023-03-22T00:59:48.174Z,99461.72
2023-03-22T01:02:15.911Z,99450.34
2023-03-22T01:04:46.182Z,99452.53
2023-03-22T01:07:17.906Z,99447.84
2023-03-22T01:09:46.660Z,99443.13
2023-03-22T01:12:16.459Z,99447.72
2023-03-22T01:14:44.358Z,99437.91
2023-03-22T01:20:12.250Z,99429.28
2023-03-22T01:22:39.726Z,99430.56
2023-03-22T01:25:09.661Z,99428.75
2023-03-22T01:27:37.214Z,99427.38
2023-03-22T01:30:05.651Z,99423.91
2023-03-22T01:32:33.268Z,99419.56
2023-03-22T01:38:13.640Z,99422.13
2023-03-22T01:40:52.016Z,99413.31
2023-03-22T01:43:19.624Z,99414.44
2023-03-22T01:45:48.945Z,99409.56
2023-03-22T01:51:25.834Z,99402.44
2023-03-22T01:57:04.191Z,99403.56
2023-03-22T01:59:41.371Z,99399.53
2023-03-22T02:02:19.027Z,99400.06
2023-03-22T02:04:57.916Z,99401.72
2023-03-22T02:10:12.113Z,99394.34
2023-03-22T02:15:59.903Z,99386.75
2023-03-22T02:18:51.903Z,99386.97
2023-03-22T02:21:32.862Z,99387.47
2023-03-22T02:24:24.659Z,99382.09
2023-03-22T02:27:07.403Z,99382.56
2023-03-22T02:29:41.382Z,99380.19
2023-03-22T02:35:34.906Z,99383.94
2023-03-22T02:38:17.523Z,99376.13
2023-03-22T02:40:51.627Z,99376.84
2023-03-22T02:43:26.066Z,99381.63
2023-03-22T02:45:57.256Z,99377.66
2023-03-22T02:48:28.612Z,99373.81
2023-03-22T02:53:49.190Z,99358.91
2023-03-22T02:56:21.372Z,99360.00
2023-03-22T02:58:51.848Z,99350.38
2023-03-22T03:01:23.022Z,99355.69
2023-03-22T03:03:51.949Z,99353.34
2023-03-22T03:06:21.357Z,99351.84
2023-03-22T03:08:51.614Z,99351.38
2023-03-22T03:11:21.512Z,99348.19
2023-03-22T03:13:50.719Z,99347.88
2023-03-22T03:16:21.394Z,99341.91
2023-03-22T03:18:52.302Z,99345.72
2023-03-22T03:21:32.464Z,99343.75
2023-03-22T03:24:19.730Z,99347.22
2023-03-22T03:26:55.480Z,99349.84
2023-03-22T03:32:29.065Z,99341.22
2023-03-22T03:34:59.275Z,99342.09
2023-03-22T03:40:31.873Z,99341.09
2023-03-22T03:43:03.806Z,99328.09
2023-03-22T03:45:31.838Z,99338.59
2023-03-22T03:48:02.155Z,99338.53
2023-03-22T03:50:29.842Z,99334.44
2023-03-22T03:55:46.170Z,99324.47
2023-03-22T03:58:16.688Z,99315.91
2023-03-22T04:00:46.502Z,99316.00
2023-03-22T04:03:23.020Z,99318.72
2023-03-22T04:06:12.662Z,99318.06
2023-03-22T04:11:44.083Z,99308.50
2023-03-22T04:17:16.047Z,99307.97
2023-03-22T04:19:44.591Z,99297.34
2023-03-22T04:22:14.679Z,99305.34
2023-03-22T04:25:19.533Z,99309.16
2023-03-22T04:27:56.819Z,99306.16
2023-03-22T04:33:32.403Z,99304.94
2023-03-22T04:36:18.070Z,99308.00
2023-03-22T04:39:05.854Z,99309.53
2023-03-22T04:41:33.987Z,99304.53
2023-03-22T04:44:03.075Z,99299.41
2023-03-22T04:46:33.304Z,99288.91
2023-03-22T04:49:06.750Z,99288.13
2023-03-22T04:54:37.553Z,99291.69
2023-03-22T04:57:05.496Z,99291.50
2023-03-22T04:59:38.784Z,99290.66
2023-03-22T05:02:06.319Z,99290.56
2023-03-22T05:04:42.220Z,99289.22
2023-03-22T05:07:19.146Z,99296.81
2023-03-22T05:09:52.059Z,99298.69
2023-03-22T05:12:19.686Z,99309.03
2023-03-22T05:17:56.611Z,99291.56
2023-03-22T05:20:25.916Z,99288.06
2023-03-22T05:23:27.182Z,99295.31
2023-03-22T05:25:58.157Z,99308.03
2023-03-22T05:28:28.371Z,99295.94
2023-03-22T05:31:11.540Z,99286.56
2023-03-22T05:33:47.332Z,99289.41
2023-03-22T05:36:20.338Z,99280.75
2023-03-22T05:39:09.611Z,99274.59
2023-03-22T05:42:14.549Z,99275.00
2023-03-22T05:44:42.159Z,99282.13
2023-03-22T05:50:17.746Z,99276.16
2023-03-22T05:52:46.781Z,99271.75
2023-03-22T05:55:34.543Z,99270.69
2023-03-22T05:58:05.202Z,99265.59
2023-03-22T06:03:29.116Z,99274.72
2023-03-22T06:06:01.890Z,99263.00
2023-03-22T06:08:41.668Z,99255.09
2023-03-22T06:11:09.823Z,99267.94
2023-03-22T06:13:38.200Z,99271.13
2023-03-22T06:16:07.900Z,99264.97
2023-03-22T06:18:35.795Z,99269.19
2023-03-22T06:21:08.976Z,99258.84
2023-03-22T06:23:37.774Z,99260.09
2023-03-22T06:26:06.779Z,99256.94
2023-03-22T06:31:33.113Z,99251.34
2023-03-22T06:37:07.702Z,99239.88
2023-03-22T06:39:38.602Z,99246.88
2023-03-22T06:42:07.408Z,99248.72
2023-03-22T06:44:35.348Z,99247.28
2023-03-22T06:50:15.783Z,99254.22
2023-03-22T06:56:11.687Z,99244.25
2023-03-22T06:58:51.688Z,99243.22
2023-03-22T07:01:19.553Z,99246.44
2023-03-22T07:03:47.235Z,99255.28
2023-03-22T07:06:16.822Z,99243.78
2023-03-22T07:08:50.686Z,99244.00
2023-03-22T07:11:22.084Z,99251.97
2023-03-22T07:13:58.488Z,99243.41
2023-03-22T07:16:29.413Z,99230.00
2023-03-22T07:18:59.811Z,99242.28
2023-03-22T07:21:27.342Z,99231.66
2023-03-22T07:23:58.639Z,99234.28
2023-03-22T07:26:30.436Z,99228.56
2023-03-22T07:31:59.012Z,99233.91
2023-03-22T07:34:32.691Z,99233.13
2023-03-22T07:37:25.584Z,99228.19
2023-03-22T07:39:53.155Z,99232.50
2023-03-22T07:42:20.722Z,99228.00
2023-03-22T07:45:09.183Z,99226.28
2023-03-22T07:50:50.199Z,99219.72
2023-03-22T07:53:17.667Z,99212.63
2023-03-22T07:55:45.233Z,99204.00
2023-03-22T07:58:12.939Z,99215.06
2023-03-22T08:00:40.895Z,99204.19
2023-03-22T08:03:28.538Z,99213.44
2023-03-22T08:06:07.966Z,99211.56
2023-03-22T08:08:37.726Z,99196.00
2023-03-22T08:11:05.999Z,99189.88
2023-03-22T08:13:34.040Z,99185.13
2023-03-22T08:16:01.807Z,99199.88
2023-03-22T08:18:31.345Z,99188.19
2023-03-22T08:21:00.211Z,99200.25
2023-03-22T08:23:41.417Z,99195.06
2023-03-22T08:26:27.933Z,99198.19
2023-03-22T08:28:58.224Z,99195.28
2023-03-22T08:34:24.586Z,99208.53
2023-03-22T08:36:52.651Z,99194.25
2023-03-22T08:42:19.950Z,99202.34
2023-03-22T08:44:47.645Z,99192.31
2023-03-22T08:47:15.435Z,99187.88
2023-03-22T08:52:46.628Z,99187.88
2023-03-22T08:55:24.734Z,99176.84
2023-03-22T08:58:12.702Z,99175.28
2023-03-22T09:01:13.266Z,99168.19
2023-03-22T09:06:52.675Z,99160.13
2023-03-22T09:09:20.241Z,99159.66
2023-03-22T09:12:07.283Z,99160.72
2023-03-22T09:14:37.599Z,99164.03
2023-03-22T09:17:05.530Z,99147.25
2023-03-22T09:19:33.355Z,99150.88
2023-03-22T09:22:01.913Z,99147.06
2023-03-22T09:24:41.032Z,99152.72
2023-03-22T09:27:08.549Z,99144.94
2023-03-22T09:29:37.383Z,99149.66
2023-03-22T09:32:09.080Z,99152.84
2023-03-22T09:34:39.341Z,99144.66
2023-03-22T09:37:07.607Z,99147.31
2023-03-22T09:39:49.766Z,99135.09
2023-03-22T09:45:29.882Z,99133.38
2023-03-22T09:47:58.324Z,99136.13
2023-03-22T09:50:27.626Z,99123.81
2023-03-22T09:56:03.057Z,99130.13
2023-03-22T09:58:34.506Z,99131.84
2023-03-22T10:01:05.451Z,99124.59
2023-03-22T10:06:31.958Z,99117.00
2023-03-22T10:09:07.678Z,99115.88
2023-03-22T10:11:44.403Z,99112.75
2023-03-22T10:14:24.916Z,99119.13
2023-03-22T10:16:56.649Z,99113.22
2023-03-22T10:19:28.069Z,99117.75
2023-03-22T10:21:57.274Z,99111.34
2023-03-22T10:24:28.160Z,99113.56
2023-03-22T10:26:55.945Z,99110.19
2023-03-22T10:29:25.338Z,99109.78
2023-03-22T10:31:55.499Z,99109.09
2023-03-22T10:34:24.431Z,99109.59
2023-03-22T10:36:53.267Z,99107.59
2023-03-22T10:39:28.454Z,99121.63
2023-03-22T10:41:58.240Z,99084.84
2023-03-22T10:44:27.572Z,99097.91
2023-03-22T10:46:56.977Z,99104.66
2023-03-22T10:49:27.690Z,99109.56
2023-03-22T10:55:01.217Z,99092.94
2023-03-22T10:57:29.821Z,99106.56
2023-03-22T10:59:58.030Z,99110.31
2023-03-22T11:02:28.538Z,99125.94
2023-03-22T11:04:58.515Z,99124.66
2023-03-22T11:10:32.466Z,99129.19
2023-03-22T11:16:09.726Z,99132.78
2023-03-22T11:18:42.396Z,99128.59
2023-03-22T11:21:12.208Z,99121.56
2023-03-22T11:23:42.685Z,99130.88
2023-03-22T11:29:16.379Z,99127.22
2023-03-22T11:31:56.967Z,99119.50
2023-03-22T11:34:27.820Z,99123.94
2023-03-22T11:36:57.384Z,99127.06
2023-03-22T11:39:28.173Z,99127.50
2023-03-22T11:41:59.921Z,99125.59
2023-03-22T11:44:28.411Z,99139.56
2023-03-22T11:46:57.786Z,99127.13
2023-03-22T11:49:29.126Z,99133.38
2023-03-22T11:51:57.012Z,99134.31
2023-03-22T11:57:26.285Z,99126.19
2023-03-22T11:59:57.721Z,99136.38
2023-03-22T12:02:27.751Z,99115.63
2023-03-22T12:05:01.670Z,99123.66
2023-03-22T12:10:29.738Z,99110.66
2023-03-22T12:13:00.283Z,99122.28
2023-03-22T12:15:30.579Z,99105.47
2023-03-22T12:18:01.985Z,99118.53
2023-03-22T12:20:37.499Z,99099.91
2023-03-22T12:23:13.626Z,99095.47
2023-03-22T12:25:42.138Z,99090.09
2023-03-22T12:28:13.973Z,99078.16
2023-03-22T12:30:44.470Z,99081.56
2023-03-22T12:33:17.681Z,99085.16
2023-03-22T12:35:47.161Z,99080.88
2023-03-22T12:41:13.706Z,99080.78
2023-03-22T12:46:49.403Z,99074.13
2023-03-22T12:49:22.567Z,99086.38
2023-03-22T12:51:52.992Z,99079.09
2023-03-22T12:54:22.864Z,99071.78
2023-03-22T12:59:50.768Z,99078.91
2023-03-22T13:02:21.486Z,99082.34
2023-03-22T13:04:54.601Z,99088.22
2023-03-22T13:07:38.106Z,99086.00
2023-03-22T13:10:47.568Z,99083.09
2023-03-22T13:13:43.080Z,99083.03
2023-03-22T13:16:24.619Z,99102.28
2023-03-22T13:19:01.740Z,99094.59
2023-03-22T13:21:31.064Z,99110.56
2023-03-22T13:24:02.254Z,99093.19
2023-03-22T13:26:36.327Z,99096.34
2023-03-22T13:31:58.506Z,99098.38
2023-03-22T13:34:37.385Z,99102.88
2023-03-22T13:37:09.614Z,99093.16
2023-03-22T13:39:39.168Z,99091.78
2023-03-22T13:44:59.844Z,99099.47
2023-03-22T13:47:35.768Z,99108.91
2023-03-22T13:53:08.983Z,99101.75
2023-03-22T13:55:42.540Z,99100.00
2023-03-22T13:58:12.763Z,99109.38
2023-03-22T14:03:43.856Z,99099.75
2023-03-22T14:06:15.621Z,99101.94
2023-03-22T14:08:44.043Z,99100.47
2023-03-22T14:11:21.451Z,99090.16
2023-03-22T14:13:51.215Z,99097.94
2023-03-22T14:16:21.544Z,99088.19
